sensor_id;sensor_type;location;lat;lon;timestamp;P1;durP1;ratioP1;P2;durP2;ratioP2
13741;SDS011;8461;52.356;10.704;2022-08-16T00:01:16;14.67;;;12.67;;
13741;SDS011;8461;52.356;10.704;2022-08-16T00:03:43;13.83;;;12.43;;
13741;SDS011;8461;52.356;10.704;2022-08-16T00:06:09;12.83;;;11.53;;
13741;SDS011;8461;52.356;10.704;2022-08-16T00:08:34;14.87;;;11.90;;
13741;SDS011;8461;52.356;10.704;2022-08-16T00:11:00;13.47;;;12.07;;
13741;SDS011;8461;52.356;10.704;2022-08-16T00:13:26;14.77;;;12.57;;
13741;SDS011;8461;52.356;10.704;2022-08-16T00:15:53;13.70;;;12.30;;
13741;SDS011;8461;52.356;10.704;2022-08-16T00:18:18;14.23;;;12.80;;
13741;SDS011;8461;52.356;10.704;2022-08-16T00:20:45;14.67;;;13.27;;
13741;SDS011;8461;52.356;10.704;2022-08-16T00:23:12;14.83;;;13.23;;
13741;SDS011;8461;52.356;10.704;2022-08-16T00:25:38;13.47;;;12.10;;
13741;SDS011;8461;52.356;10.704;2022-08-16T00:28:05;13.40;;;12.10;;
13741;SDS011;8461;52.356;10.704;2022-08-16T00:30:31;13.53;;;12.13;;
13741;SDS011;8461;52.356;10.704;2022-08-16T00:32:57;15.00;;;12.87;;
13741;SDS011;8461;52.356;10.704;2022-08-16T00:35:25;13.93;;;12.50;;
13741;SDS011;8461;52.356;10.704;2022-08-16T00:37:53;15.23;;;13.20;;
13741;SDS011;8461;52.356;10.704;2022-08-16T00:40:23;14.70;;;13.23;;
13741;SDS011;8461;52.356;10.704;2022-08-16T00:42:51;16.70;;;13.50;;
13741;SDS011;8461;52.356;10.704;2022-08-16T00:45:27;15.97;;;13.90;;
13741;SDS011;8461;52.356;10.704;2022-08-16T00:48:04;14.87;;;13.37;;
13741;SDS011;8461;52.356;10.704;2022-08-16T00:50:33;15.83;;;13.17;;
13741;SDS011;8461;52.356;10.704;2022-08-16T00:52:59;15.07;;;13.57;;
13741;SDS011;8461;52.356;10.704;2022-08-16T00:55:25;15.70;;;13.67;;
13741;SDS011;8461;52.356;10.704;2022-08-16T00:57:54;14.27;;;12.73;;
13741;SDS011;8461;52.356;10.704;2022-08-16T01:00:21;16.00;;;13.67;;
13741;SDS011;8461;52.356;10.704;2022-08-16T01:02:52;14.27;;;12.87;;
13741;SDS011;8461;52.356;10.704;2022-08-16T01:05:19;13.63;;;12.30;;
13741;SDS011;8461;52.356;10.704;2022-08-16T01:07:44;13.97;;;12.07;;
13741;SDS011;8461;52.356;10.704;2022-08-16T01:10:10;14.90;;;13.33;;
13741;SDS011;8461;52.356;10.704;2022-08-16T01:12:36;13.97;;;12.47;;
13741;SDS011;8461;52.356;10.704;2022-08-16T01:15:03;15.77;;;12.90;;
13741;SDS011;8461;52.356;10.704;2022-08-16T01:17:29;14.97;;;13.47;;
13741;SDS011;8461;52.356;10.704;2022-08-16T01:19:58;14.70;;;13.23;;
13741;SDS011;8461;52.356;10.704;2022-08-16T01:24:53;15.70;;;13.70;;
13741;SDS011;8461;52.356;10.704;2022-08-16T01:27:33;15.63;;;13.13;;
13741;SDS011;8461;52.356;10.704;2022-08-16T01:30:10;15.53;;;13.93;;
13741;SDS011;8461;52.356;10.704;2022-08-16T01:32:39;15.10;;;13.50;;
13741;SDS011;8461;52.356;10.704;2022-08-16T01:35:26;16.13;;;13.93;;
13741;SDS011;8461;52.356;10.704;2022-08-16T01:37:56;15.80;;;14.20;;
13741;SDS011;8461;52.356;10.704;2022-08-16T01:40:37;15.23;;;13.33;;
13741;SDS011;8461;52.356;10.704;2022-08-16T01:43:03;15.67;;;12.83;;
13741;SDS011;8461;52.356;10.704;2022-08-16T01:45:28;14.70;;;13.03;;
13741;SDS011;8461;52.356;10.704;2022-08-16T01:47:54;11.63;;;10.50;;
13741;SDS011;8461;52.356;10.704;2022-08-16T01:50:20;10.07;;;8.67;;
13741;SDS011;8461;52.356;10.704;2022-08-16T01:52:46;9.47;;;8.50;;
13741;SDS011;8461;52.356;10.704;2022-08-16T01:55:12;13.37;;;10.30;;
13741;SDS011;8461;52.356;10.704;2022-08-16T01:57:37;10.27;;;8.93;;
13741;SDS011;8461;52.356;10.704;2022-08-16T02:00:08;11.73;;;10.53;;
13741;SDS011;8461;52.356;10.704;2022-08-16T02:02:39;12.63;;;11.43;;
13741;SDS011;8461;52.356;10.704;2022-08-16T02:05:05;14.03;;;12.63;;
13741;SDS011;8461;52.356;10.704;2022-08-16T02:07:32;13.97;;;10.87;;
13741;SDS011;8461;52.356;10.704;2022-08-16T02:09:58;13.70;;;12.30;;
13741;SDS011;8461;52.356;10.704;2022-08-16T02:12:25;11.73;;;10.53;;
13741;SDS011;8461;52.356;10.704;2022-08-16T02:14:51;15.97;;;13.13;;
13741;SDS011;8461;52.356;10.704;2022-08-16T02:17:17;13.90;;;12.33;;
13741;SDS011;8461;52.356;10.704;2022-08-16T02:19:43;12.37;;;11.13;;
13741;SDS011;8461;52.356;10.704;2022-08-16T02:22:11;14.60;;;12.33;;
13741;SDS011;8461;52.356;10.704;2022-08-16T02:24:40;13.93;;;12.17;;
13741;SDS011;8461;52.356;10.704;2022-08-16T02:27:06;12.80;;;11.53;;
13741;SDS011;8461;52.356;10.704;2022-08-16T02:29:32;15.33;;;11.97;;
13741;SDS011;8461;52.356;10.704;2022-08-16T02:31:57;13.73;;;12.40;;
13741;SDS011;8461;52.356;10.704;2022-08-16T02:34:23;14.43;;;12.93;;
13741;SDS011;8461;52.356;10.704;2022-08-16T02:36:49;14.43;;;12.93;;
13741;SDS011;8461;52.356;10.704;2022-08-16T02:39:15;16.73;;;11.73;;
13741;SDS011;8461;52.356;10.704;2022-08-16T02:41:43;13.33;;;11.93;;
13741;SDS011;8461;52.356;10.704;2022-08-16T02:44:11;12.00;;;10.80;;
13741;SDS011;8461;52.356;10.704;2022-08-16T02:46:37;12.43;;;11.17;;
13741;SDS011;8461;52.356;10.704;2022-08-16T02:49:04;13.27;;;11.17;;
13741;SDS011;8461;52.356;10.704;2022-08-16T02:51:30;15.90;;;12.97;;
13741;SDS011;8461;52.356;10.704;2022-08-16T02:53:56;15.37;;;12.73;;
13741;SDS011;8461;52.356;10.704;2022-08-16T02:56:22;16.37;;;13.40;;
13741;SDS011;8461;52.356;10.704;2022-08-16T02:58:49;14.40;;;12.90;;
13741;SDS011;8461;52.356;10.704;2022-08-16T03:01:21;16.10;;;13.13;;
13741;SDS011;8461;52.356;10.704;2022-08-16T03:03:49;15.13;;;13.23;;
13741;SDS011;8461;52.356;10.704;2022-08-16T03:06:16;15.83;;;14.17;;
13741;SDS011;8461;52.356;10.704;2022-08-16T03:08:45;14.93;;;13.43;;
13741;SDS011;8461;52.356;10.704;2022-08-16T03:11:11;20.17;;;13.90;;
13741;SDS011;8461;52.356;10.704;2022-08-16T03:13:37;15.07;;;12.93;;
13741;SDS011;8461;52.356;10.704;2022-08-16T03:16:04;14.63;;;12.67;;
13741;SDS011;8461;52.356;10.704;2022-08-16T03:18:30;15.67;;;12.37;;
13741;SDS011;8461;52.356;10.704;2022-08-16T03:20:55;14.63;;;13.13;;
13741;SDS011;8461;52.356;10.704;2022-08-16T03:23:23;14.13;;;12.70;;
13741;SDS011;8461;52.356;10.704;2022-08-16T03:25:49;14.33;;;12.90;;
13741;SDS011;8461;52.356;10.704;2022-08-16T03:28:15;13.47;;;12.10;;
13741;SDS011;8461;52.356;10.704;2022-08-16T03:30:40;15.37;;;12.80;;
13741;SDS011;8461;52.356;10.704;2022-08-16T03:33:06;15.93;;;14.20;;
13741;SDS011;8461;52.356;10.704;2022-08-16T03:35:32;14.47;;;13.07;;
13741;SDS011;8461;52.356;10.704;2022-08-16T03:38:01;16.63;;;13.00;;
13741;SDS011;8461;52.356;10.704;2022-08-16T03:40:30;16.43;;;13.57;;
13741;SDS011;8461;52.356;10.704;2022-08-16T03:42:57;14.17;;;12.63;;
13741;SDS011;8461;52.356;10.704;2022-08-16T03:45:23;14.87;;;12.50;;
13741;SDS011;8461;52.356;10.704;2022-08-16T03:47:49;13.80;;;12.27;;
13741;SDS011;8461;52.356;10.704;2022-08-16T03:50:15;10.73;;;9.63;;
13741;SDS011;8461;52.356;10.704;2022-08-16T03:52:41;10.20;;;9.20;;
13741;SDS011;8461;52.356;10.704;2022-08-16T03:55:08;11.57;;;10.40;;
13741;SDS011;8461;52.356;10.704;2022-08-16T03:57:35;12.00;;;10.20;;
13741;SDS011;8461;52.356;10.704;2022-08-16T04:00:08;15.77;;;11.63;;
13741;SDS011;8461;52.356;10.704;2022-08-16T04:02:37;14.23;;;12.40;;
13741;SDS011;8461;52.356;10.704;2022-08-16T04:05:04;13.03;;;11.67;;
13741;SDS011;8461;52.356;10.704;2022-08-16T04:07:30;14.43;;;12.83;;
13741;SDS011;8461;52.356;10.704;2022-08-16T04:09:56;16.53;;;12.80;;
13741;SDS011;8461;52.356;10.704;2022-08-16T04:12:21;16.60;;;13.63;;
13741;SDS011;8461;52.356;10.704;2022-08-16T04:14:47;17.17;;;13.40;;
13741;SDS011;8461;52.356;10.704;2022-08-16T04:17:13;14.30;;;12.33;;
13741;SDS011;8461;52.356;10.704;2022-08-16T04:19:39;16.83;;;13.83;;
13741;SDS011;8461;52.356;10.704;2022-08-16T04:22:05;14.63;;;13.13;;
13741;SDS011;8461;52.356;10.704;2022-08-16T04:24:31;14.47;;;12.53;;
13741;SDS011;8461;52.356;10.704;2022-08-16T04:26:57;20.60;;;12.43;;
13741;SDS011;8461;52.356;10.704;2022-08-16T04:29:23;16.63;;;13.57;;
13741;SDS011;8461;52.356;10.704;2022-08-16T04:31:49;22.43;;;13.10;;
13741;SDS011;8461;52.356;10.704;2022-08-16T04:34:16;16.77;;;12.33;;
13741;SDS011;8461;52.356;10.704;2022-08-16T04:36:41;14.07;;;12.50;;
13741;SDS011;8461;52.356;10.704;2022-08-16T04:39:07;15.03;;;11.47;;
13741;SDS011;8461;52.356;10.704;2022-08-16T04:41:33;13.10;;;11.80;;
13741;SDS011;8461;52.356;10.704;2022-08-16T04:43:59;15.50;;;12.83;;
13741;SDS011;8461;52.356;10.704;2022-08-16T04:46:24;11.57;;;10.47;;
13741;SDS011;8461;52.356;10.704;2022-08-16T04:48:50;17.33;;;13.17;;
13741;SDS011;8461;52.356;10.704;2022-08-16T04:51:15;10.83;;;9.30;;
13741;SDS011;8461;52.356;10.704;2022-08-16T04:53:41;11.00;;;9.83;;
13741;SDS011;8461;52.356;10.704;2022-08-16T04:56:07;15.00;;;10.73;;
13741;SDS011;8461;52.356;10.704;2022-08-16T04:58:33;14.03;;;12.60;;
13741;SDS011;8461;52.356;10.704;2022-08-16T05:00:59;13.13;;;11.33;;
13741;SDS011;8461;52.356;10.704;2022-08-16T05:03:25;13.60;;;12.23;;
13741;SDS011;8461;52.356;10.704;2022-08-16T05:05:51;13.93;;;12.43;;
13741;SDS011;8461;52.356;10.704;2022-08-16T05:08:16;13.47;;;12.10;;
13741;SDS011;8461;52.356;10.704;2022-08-16T05:10:42;13.53;;;11.40;;
13741;SDS011;8461;52.356;10.704;2022-08-16T05:13:08;13.37;;;11.97;;
13741;SDS011;8461;52.356;10.704;2022-08-16T05:15:34;14.40;;;11.97;;
13741;SDS011;8461;52.356;10.704;2022-08-16T05:18:01;13.07;;;11.67;;
13741;SDS011;8461;52.356;10.704;2022-08-16T05:20:28;14.73;;;11.97;;
13741;SDS011;8461;52.356;10.704;2022-08-16T05:22:54;12.13;;;10.90;;
13741;SDS011;8461;52.356;10.704;2022-08-16T05:25:19;12.07;;;10.87;;
13741;SDS011;8461;52.356;10.704;2022-08-16T05:27:45;12.20;;;10.63;;
13741;SDS011;8461;52.356;10.704;2022-08-16T05:30:11;12.70;;;11.27;;
13741;SDS011;8461;52.356;10.704;2022-08-16T05:32:38;15.30;;;11.30;;
13741;SDS011;8461;52.356;10.704;2022-08-16T05:35:05;15.60;;;10.87;;
13741;SDS011;8461;52.356;10.704;2022-08-16T05:37:34;11.70;;;10.23;;
13741;SDS011;8461;52.356;10.704;2022-08-16T05:40:00;12.13;;;10.80;;
13741;SDS011;8461;52.356;10.704;2022-08-16T05:42:26;13.40;;;10.23;;
13741;SDS011;8461;52.356;10.704;2022-08-16T05:44:52;12.37;;;11.07;;
13741;SDS011;8461;52.356;10.704;2022-08-16T05:47:17;12.00;;;10.83;;
13741;SDS011;8461;52.356;10.704;2022-08-16T05:49:43;11.67;;;10.47;;
13741;SDS011;8461;52.356;10.704;2022-08-16T05:52:09;15.27;;;11.10;;
13741;SDS011;8461;52.356;10.704;2022-08-16T05:54:36;11.60;;;10.43;;
13741;SDS011;8461;52.356;10.704;2022-08-16T05:57:01;15.70;;;11.47;;
13741;SDS011;8461;52.356;10.704;2022-08-16T05:59:27;12.67;;;11.40;;
13741;SDS011;8461;52.356;10.704;2022-08-16T06:01:53;11.67;;;10.47;;
13741;SDS011;8461;52.356;10.704;2022-08-16T06:04:19;12.10;;;9.90;;
13741;SDS011;8461;52.356;10.704;2022-08-16T06:06:45;12.73;;;10.37;;
13741;SDS011;8461;52.356;10.704;2022-08-16T06:09:11;12.20;;;9.87;;
13741;SDS011;8461;52.356;10.704;2022-08-16T06:11:37;10.63;;;9.50;;
13741;SDS011;8461;52.356;10.704;2022-08-16T06:14:03;11.77;;;9.50;;
13741;SDS011;8461;52.356;10.704;2022-08-16T06:16:29;15.07;;;9.77;;
13741;SDS011;8461;52.356;10.704;2022-08-16T06:18:55;12.87;;;9.47;;
13741;SDS011;8461;52.356;10.704;2022-08-16T06:21:20;12.00;;;9.53;;
13741;SDS011;8461;52.356;10.704;2022-08-16T06:23:46;9.47;;;8.43;;
13741;SDS011;8461;52.356;10.704;2022-08-16T06:26:12;11.63;;;9.77;;
13741;SDS011;8461;52.356;10.704;2022-08-16T06:28:38;10.27;;;9.03;;
13741;SDS011;8461;52.356;10.704;2022-08-16T06:31:04;12.40;;;8.63;;
13741;SDS011;8461;52.356;10.704;2022-08-16T06:33:31;9.43;;;8.53;;
13741;SDS011;8461;52.356;10.704;2022-08-16T06:35:57;9.23;;;8.23;;
13741;SDS011;8461;52.356;10.704;2022-08-16T06:38:22;11.33;;;8.40;;
13741;SDS011;8461;52.356;10.704;2022-08-16T06:40:48;9.40;;;7.57;;
13741;SDS011;8461;52.356;10.704;2022-08-16T06:43:15;12.60;;;8.27;;
13741;SDS011;8461;52.356;10.704;2022-08-16T06:45:41;11.80;;;8.47;;
13741;SDS011;8461;52.356;10.704;2022-08-16T06:48:08;9.30;;;7.90;;
13741;SDS011;8461;52.356;10.704;2022-08-16T06:50:34;10.13;;;8.90;;
13741;SDS011;8461;52.356;10.704;2022-08-16T06:53:01;8.60;;;7.20;;
13741;SDS011;8461;52.356;10.704;2022-08-16T06:55:28;11.13;;;7.00;;
13741;SDS011;8461;52.356;10.704;2022-08-16T06:57:54;10.67;;;7.30;;
13741;SDS011;8461;52.356;10.704;2022-08-16T07:00:21;9.33;;;7.23;;
13741;SDS011;8461;52.356;10.704;2022-08-16T07:02:48;10.47;;;8.13;;
13741;SDS011;8461;52.356;10.704;2022-08-16T07:05:15;9.50;;;7.37;;
13741;SDS011;8461;52.356;10.704;2022-08-16T07:07:42;10.43;;;7.00;;
13741;SDS011;8461;52.356;10.704;2022-08-16T07:10:09;13.33;;;6.70;;
13741;SDS011;8461;52.356;10.704;2022-08-16T07:12:36;9.23;;;7.23;;
13741;SDS011;8461;52.356;10.704;2022-08-16T07:15:02;8.20;;;7.37;;
13741;SDS011;8461;52.356;10.704;2022-08-16T07:17:30;10.67;;;7.03;;
13741;SDS011;8461;52.356;10.704;2022-08-16T07:19:57;8.63;;;6.97;;
13741;SDS011;8461;52.356;10.704;2022-08-16T07:22:23;9.10;;;7.23;;
13741;SDS011;8461;52.356;10.704;2022-08-16T07:24:50;8.60;;;7.20;;
13741;SDS011;8461;52.356;10.704;2022-08-16T07:27:16;8.03;;;7.07;;
13741;SDS011;8461;52.356;10.704;2022-08-16T07:29:41;10.40;;;6.47;;
13741;SDS011;8461;52.356;10.704;2022-08-16T07:32:07;13.40;;;7.50;;
13741;SDS011;8461;52.356;10.704;2022-08-16T07:34:33;11.83;;;7.40;;
13741;SDS011;8461;52.356;10.704;2022-08-16T07:36:59;7.63;;;5.93;;
13741;SDS011;8461;52.356;10.704;2022-08-16T07:39:29;9.43;;;6.80;;
13741;SDS011;8461;52.356;10.704;2022-08-16T07:41:54;11.03;;;6.07;;
13741;SDS011;8461;52.356;10.704;2022-08-16T07:44:20;9.30;;;6.23;;
13741;SDS011;8461;52.356;10.704;2022-08-16T07:46:46;11.03;;;5.90;;
13741;SDS011;8461;52.356;10.704;2022-08-16T07:49:11;8.13;;;6.47;;
13741;SDS011;8461;52.356;10.704;2022-08-16T07:51:37;8.03;;;6.23;;
13741;SDS011;8461;52.356;10.704;2022-08-16T07:54:04;9.00;;;6.40;;
13741;SDS011;8461;52.356;10.704;2022-08-16T07:56:31;7.63;;;6.00;;
13741;SDS011;8461;52.356;10.704;2022-08-16T07:58:57;6.30;;;5.70;;
13741;SDS011;8461;52.356;10.704;2022-08-16T08:01:22;9.37;;;6.00;;
13741;SDS011;8461;52.356;10.704;2022-08-16T08:03:48;7.87;;;6.17;;
13741;SDS011;8461;52.356;10.704;2022-08-16T08:06:15;7.03;;;5.77;;
13741;SDS011;8461;52.356;10.704;2022-08-16T08:08:45;7.00;;;5.93;;
13741;SDS011;8461;52.356;10.704;2022-08-16T08:11:11;7.90;;;5.93;;
13741;SDS011;8461;52.356;10.704;2022-08-16T08:13:37;10.03;;;6.23;;
13741;SDS011;8461;52.356;10.704;2022-08-16T08:16:03;6.90;;;5.70;;
13741;SDS011;8461;52.356;10.704;2022-08-16T08:18:28;9.47;;;6.37;;
13741;SDS011;8461;52.356;10.704;2022-08-16T08:20:54;10.73;;;6.53;;
13741;SDS011;8461;52.356;10.704;2022-08-16T08:23:20;6.40;;;5.60;;
13741;SDS011;8461;52.356;10.704;2022-08-16T08:25:47;7.10;;;5.23;;
13741;SDS011;8461;52.356;10.704;2022-08-16T08:28:13;9.77;;;5.57;;
13741;SDS011;8461;52.356;10.704;2022-08-16T08:30:39;8.73;;;5.57;;
13741;SDS011;8461;52.356;10.704;2022-08-16T08:33:05;7.50;;;5.67;;
13741;SDS011;8461;52.356;10.704;2022-08-16T08:35:31;5.80;;;5.20;;
13741;SDS011;8461;52.356;10.704;2022-08-16T08:37:58;8.70;;;5.30;;
13741;SDS011;8461;52.356;10.704;2022-08-16T08:40:24;6.87;;;4.77;;
13741;SDS011;8461;52.356;10.704;2022-08-16T08:42:51;6.77;;;4.47;;
13741;SDS011;8461;52.356;10.704;2022-08-16T08:45:16;9.70;;;5.10;;
13741;SDS011;8461;52.356;10.704;2022-08-16T08:47:43;8.47;;;4.90;;
13741;SDS011;8461;52.356;10.704;2022-08-16T08:50:12;5.03;;;3.87;;
13741;SDS011;8461;52.356;10.704;2022-08-16T08:52:42;5.17;;;4.20;;
13741;SDS011;8461;52.356;10.704;2022-08-16T08:55:10;8.00;;;4.37;;
13741;SDS011;8461;52.356;10.704;2022-08-16T08:57:38;5.33;;;4.83;;
13741;SDS011;8461;52.356;10.704;2022-08-16T09:00:05;7.73;;;4.33;;
13741;SDS011;8461;52.356;10.704;2022-08-16T09:02:32;5.13;;;3.73;;
13741;SDS011;8461;52.356;10.704;2022-08-16T09:04:57;3.83;;;3.43;;
13741;SDS011;8461;52.356;10.704;2022-08-16T09:07:23;3.90;;;3.50;;
13741;SDS011;8461;52.356;10.704;2022-08-16T09:09:48;5.97;;;3.63;;
13741;SDS011;8461;52.356;10.704;2022-08-16T09:12:14;5.50;;;3.90;;
13741;SDS011;8461;52.356;10.704;2022-08-16T09:14:42;5.23;;;3.57;;
13741;SDS011;8461;52.356;10.704;2022-08-16T09:17:09;8.20;;;3.90;;
13741;SDS011;8461;52.356;10.704;2022-08-16T09:19:35;6.13;;;3.50;;
13741;SDS011;8461;52.356;10.704;2022-08-16T09:22:02;7.63;;;4.47;;
13741;SDS011;8461;52.356;10.704;2022-08-16T09:24:28;8.80;;;4.50;;
13741;SDS011;8461;52.356;10.704;2022-08-16T09:26:54;5.90;;;4.50;;
13741;SDS011;8461;52.356;10.704;2022-08-16T09:29:20;5.13;;;3.83;;
13741;SDS011;8461;52.356;10.704;2022-08-16T09:31:45;4.33;;;3.90;;
13741;SDS011;8461;52.356;10.704;2022-08-16T09:34:13;5.13;;;3.80;;
13741;SDS011;8461;52.356;10.704;2022-08-16T09:36:38;5.33;;;3.77;;
13741;SDS011;8461;52.356;10.704;2022-08-16T09:39:04;4.93;;;3.80;;
13741;SDS011;8461;52.356;10.704;2022-08-16T09:41:30;4.60;;;3.70;;
13741;SDS011;8461;52.356;10.704;2022-08-16T09:43:56;4.63;;;3.83;;
13741;SDS011;8461;52.356;10.704;2022-08-16T09:46:22;8.20;;;4.30;;
13741;SDS011;8461;52.356;10.704;2022-08-16T09:48:49;4.87;;;3.13;;
13741;SDS011;8461;52.356;10.704;2022-08-16T09:51:16;8.20;;;3.50;;
13741;SDS011;8461;52.356;10.704;2022-08-16T09:53:42;6.75;;;3.45;;
13741;SDS011;8461;52.356;10.704;2022-08-16T09:56:16;4.15;;;3.40;;
13741;SDS011;8461;52.356;10.704;2022-08-16T09:58:51;3.20;;;2.90;;
13741;SDS011;8461;52.356;10.704;2022-08-16T10:01:17;4.57;;;3.10;;
13741;SDS011;8461;52.356;10.704;2022-08-16T10:03:43;5.20;;;3.00;;
13741;SDS011;8461;52.356;10.704;2022-08-16T10:06:09;3.70;;;3.35;;
13741;SDS011;8461;52.356;10.704;2022-08-16T10:08:34;4.38;;;3.50;;
13741;SDS011;8461;52.356;10.704;2022-08-16T10:11:00;4.10;;;3.22;;
13741;SDS011;8461;52.356;10.704;2022-08-16T10:13:44;4.20;;;3.20;;
13741;SDS011;8461;52.356;10.704;2022-08-16T10:16:10;4.93;;;3.38;;
13741;SDS011;8461;52.356;10.704;2022-08-16T10:18:38;5.07;;;3.20;;
13741;SDS011;8461;52.356;10.704;2022-08-16T10:21:04;4.35;;;3.42;;
13741;SDS011;8461;52.356;10.704;2022-08-16T10:23:30;5.32;;;3.38;;
13741;SDS011;8461;52.356;10.704;2022-08-16T10:25:56;4.90;;;3.53;;
13741;SDS011;8461;52.356;10.704;2022-08-16T10:28:22;5.82;;;3.35;;
13741;SDS011;8461;52.356;10.704;2022-08-16T10:30:48;7.47;;;4.15;;
13741;SDS011;8461;52.356;10.704;2022-08-16T10:33:14;4.13;;;3.70;;
13741;SDS011;8461;52.356;10.704;2022-08-16T10:35:41;5.05;;;3.67;;
13741;SDS011;8461;52.356;10.704;2022-08-16T10:38:07;6.38;;;3.25;;
13741;SDS011;8461;52.356;10.704;2022-08-16T10:40:33;5.50;;;3.58;;
13741;SDS011;8461;52.356;10.704;2022-08-16T10:42:59;4.28;;;3.58;;
13741;SDS011;8461;52.356;10.704;2022-08-16T10:45:25;5.40;;;3.35;;
13741;SDS011;8461;52.356;10.704;2022-08-16T10:47:53;6.25;;;3.50;;
13741;SDS011;8461;52.356;10.704;2022-08-16T10:50:20;7.20;;;2.95;;
13741;SDS011;8461;52.356;10.704;2022-08-16T10:52:46;3.58;;;3.28;;
13741;SDS011;8461;52.356;10.704;2022-08-16T10:55:12;5.47;;;3.28;;
13741;SDS011;8461;52.356;10.704;2022-08-16T10:57:38;5.68;;;3.65;;
13741;SDS011;8461;52.356;10.704;2022-08-16T11:00:06;3.45;;;3.03;;
13741;SDS011;8461;52.356;10.704;2022-08-16T11:02:36;5.72;;;3.08;;
13741;SDS011;8461;52.356;10.704;2022-08-16T11:05:03;4.47;;;3.20;;
13741;SDS011;8461;52.356;10.704;2022-08-16T11:07:30;4.10;;;2.83;;
13741;SDS011;8461;52.356;10.704;2022-08-16T11:09:56;3.20;;;2.80;;
13741;SDS011;8461;52.356;10.704;2022-08-16T11:12:26;5.28;;;3.05;;
13741;SDS011;8461;52.356;10.704;2022-08-16T11:14:51;4.50;;;2.72;;
13741;SDS011;8461;52.356;10.704;2022-08-16T11:17:17;6.78;;;2.90;;
13741;SDS011;8461;52.356;10.704;2022-08-16T11:19:43;6.18;;;2.80;;
13741;SDS011;8461;52.356;10.704;2022-08-16T11:22:08;4.25;;;2.95;;
13741;SDS011;8461;52.356;10.704;2022-08-16T11:24:34;4.75;;;2.92;;
13741;SDS011;8461;52.356;10.704;2022-08-16T11:27:04;5.85;;;3.60;;
13741;SDS011;8461;52.356;10.704;2022-08-16T11:29:31;6.07;;;3.28;;
13741;SDS011;8461;52.356;10.704;2022-08-16T11:31:58;6.47;;;2.90;;
13741;SDS011;8461;52.356;10.704;2022-08-16T11:34:24;4.78;;;3.40;;
13741;SDS011;8461;52.356;10.704;2022-08-16T11:36:49;3.30;;;3.00;;
13741;SDS011;8461;52.356;10.704;2022-08-16T11:39:16;5.30;;;2.97;;
13741;SDS011;8461;52.356;10.704;2022-08-16T11:41:41;3.35;;;2.67;;
13741;SDS011;8461;52.356;10.704;2022-08-16T11:44:07;5.50;;;2.83;;
13741;SDS011;8461;52.356;10.704;2022-08-16T11:46:33;4.57;;;2.45;;
13741;SDS011;8461;52.356;10.704;2022-08-16T11:49:00;3.45;;;2.83;;
13741;SDS011;8461;52.356;10.704;2022-08-16T11:51:26;5.32;;;2.90;;
13741;SDS011;8461;52.356;10.704;2022-08-16T11:53:52;4.88;;;2.65;;
13741;SDS011;8461;52.356;10.704;2022-08-16T11:56:18;5.28;;;2.75;;
13741;SDS011;8461;52.356;10.704;2022-08-16T11:58:44;5.57;;;2.60;;
13741;SDS011;8461;52.356;10.704;2022-08-16T12:01:09;3.95;;;2.40;;
13741;SDS011;8461;52.356;10.704;2022-08-16T12:03:35;3.83;;;2.58;;
13741;SDS011;8461;52.356;10.704;2022-08-16T12:06:07;6.05;;;2.67;;
13741;SDS011;8461;52.356;10.704;2022-08-16T12:08:44;5.32;;;2.80;;
13741;SDS011;8461;52.356;10.704;2022-08-16T12:11:11;5.47;;;2.60;;
13741;SDS011;8461;52.356;10.704;2022-08-16T12:13:38;4.13;;;2.55;;
13741;SDS011;8461;52.356;10.704;2022-08-16T12:16:04;4.35;;;2.60;;
13741;SDS011;8461;52.356;10.704;2022-08-16T12:18:32;3.88;;;2.50;;
13741;SDS011;8461;52.356;10.704;2022-08-16T12:20:58;4.15;;;2.67;;
13741;SDS011;8461;52.356;10.704;2022-08-16T12:23:23;3.85;;;2.60;;
13741;SDS011;8461;52.356;10.704;2022-08-16T12:25:49;4.75;;;2.60;;
13741;SDS011;8461;52.356;10.704;2022-08-16T12:28:14;2.90;;;2.50;;
13741;SDS011;8461;52.356;10.704;2022-08-16T12:30:41;4.28;;;2.85;;
13741;SDS011;8461;52.356;10.704;2022-08-16T12:33:09;2.95;;;2.55;;
13741;SDS011;8461;52.356;10.704;2022-08-16T12:35:40;5.07;;;2.90;;
13741;SDS011;8461;52.356;10.704;2022-08-16T12:38:07;2.70;;;2.40;;
13741;SDS011;8461;52.356;10.704;2022-08-16T12:40:34;3.25;;;2.90;;
13741;SDS011;8461;52.356;10.704;2022-08-16T12:43:02;3.30;;;2.70;;
13741;SDS011;8461;52.356;10.704;2022-08-16T12:45:30;5.85;;;2.55;;
13741;SDS011;8461;52.356;10.704;2022-08-16T12:47:58;4.55;;;2.67;;
13741;SDS011;8461;52.356;10.704;2022-08-16T12:50:43;4.47;;;2.80;;
13741;SDS011;8461;52.356;10.704;2022-08-16T12:53:09;3.85;;;2.55;;
13741;SDS011;8461;52.356;10.704;2022-08-16T12:55:35;3.70;;;2.53;;
13741;SDS011;8461;52.356;10.704;2022-08-16T12:58:02;4.07;;;2.42;;
13741;SDS011;8461;52.356;10.704;2022-08-16T13:00:29;5.50;;;2.42;;
13741;SDS011;8461;52.356;10.704;2022-08-16T13:02:56;7.57;;;3.03;;
13741;SDS011;8461;52.356;10.704;2022-08-16T13:05:22;6.22;;;2.80;;
13741;SDS011;8461;52.356;10.704;2022-08-16T13:07:49;4.05;;;2.90;;
13741;SDS011;8461;52.356;10.704;2022-08-16T13:10:15;8.15;;;3.13;;
13741;SDS011;8461;52.356;10.704;2022-08-16T13:12:46;3.03;;;2.60;;
13741;SDS011;8461;52.356;10.704;2022-08-16T13:15:17;4.97;;;2.55;;
13741;SDS011;8461;52.356;10.704;2022-08-16T13:17:45;5.32;;;2.92;;
13741;SDS011;8461;52.356;10.704;2022-08-16T13:20:12;3.50;;;2.28;;
13741;SDS011;8461;52.356;10.704;2022-08-16T13:22:44;2.95;;;2.30;;
13741;SDS011;8461;52.356;10.704;2022-08-16T13:25:16;3.20;;;2.15;;
13741;SDS011;8461;52.356;10.704;2022-08-16T13:27:43;3.25;;;2.60;;
13741;SDS011;8461;52.356;10.704;2022-08-16T13:30:09;3.88;;;2.53;;
13741;SDS011;8461;52.356;10.704;2022-08-16T13:32:36;2.97;;;2.40;;
13741;SDS011;8461;52.356;10.704;2022-08-16T13:35:02;7.15;;;2.80;;
13741;SDS011;8461;52.356;10.704;2022-08-16T13:37:28;3.53;;;2.25;;
13741;SDS011;8461;52.356;10.704;2022-08-16T13:39:54;5.50;;;2.50;;
13741;SDS011;8461;52.356;10.704;2022-08-16T13:42:19;2.95;;;2.65;;
13741;SDS011;8461;52.356;10.704;2022-08-16T13:44:46;3.58;;;2.80;;
13741;SDS011;8461;52.356;10.704;2022-08-16T13:47:13;3.90;;;2.65;;
13741;SDS011;8461;52.356;10.704;2022-08-16T13:49:38;4.88;;;2.60;;
13741;SDS011;8461;52.356;10.704;2022-08-16T13:52:05;2.78;;;2.28;;
13741;SDS011;8461;52.356;10.704;2022-08-16T13:54:32;4.63;;;2.42;;
13741;SDS011;8461;52.356;10.704;2022-08-16T13:56:58;2.97;;;2.33;;
13741;SDS011;8461;52.356;10.704;2022-08-16T13:59:24;3.50;;;2.67;;
13741;SDS011;8461;52.356;10.704;2022-08-16T14:01:50;3.90;;;2.95;;
13741;SDS011;8461;52.356;10.704;2022-08-16T14:04:17;5.82;;;2.80;;
13741;SDS011;8461;52.356;10.704;2022-08-16T14:06:42;3.08;;;2.63;;
13741;SDS011;8461;52.356;10.704;2022-08-16T14:09:08;3.88;;;3.00;;
13741;SDS011;8461;52.356;10.704;2022-08-16T14:11:35;4.07;;;2.45;;
13741;SDS011;8461;52.356;10.704;2022-08-16T14:14:02;3.38;;;2.40;;
13741;SDS011;8461;52.356;10.704;2022-08-16T14:16:28;5.00;;;2.83;;
13741;SDS011;8461;52.356;10.704;2022-08-16T14:18:53;3.90;;;2.83;;
13741;SDS011;8461;52.356;10.704;2022-08-16T14:21:20;3.00;;;2.65;;
13741;SDS011;8461;52.356;10.704;2022-08-16T14:23:46;5.38;;;2.72;;
13741;SDS011;8461;52.356;10.704;2022-08-16T14:26:11;6.63;;;3.00;;
13741;SDS011;8461;52.356;10.704;2022-08-16T14:28:38;4.38;;;2.83;;
13741;SDS011;8461;52.356;10.704;2022-08-16T14:31:03;4.82;;;2.95;;
13741;SDS011;8461;52.356;10.704;2022-08-16T14:33:30;4.53;;;2.58;;
13741;SDS011;8461;52.356;10.704;2022-08-16T14:35:56;3.72;;;2.60;;